KVNYKCMA

Guest
Details From KVNY - Van Nuys
To KCMA - CAMARILLO
Flight Number -
Tags generated
Created
Modified
Stats Distance 35 nm / 65 km
Max Altitude 2,900 ft / 884 m
Waypoints 3
Social Downloads 0
Likes 0
Share VATSIM

Download

Looking for another format? Having issues loading an existing format? Contact us
Advertisement - Login to hide

Notes

Basic altitude profile: - Ascent Rate: 2500ft/min - Ascent Speed: 250kts - Cruise Altitude: 35000ft - Cruise Speed: 420kts - Descent Rate: 1500ft/min - Descent Speed: 250kts Options: - Use NATs: yes - Use PACOTS: yes - Use low airways: no - Use high airways: yes

Route

KVNY FIM KCMA

ID Type Via Altitude Latitude Longitude Leg Dist Tot Dist Heading (true) Name
O KVNY APT - 0 ft / 0 m 34.21072˚ -118.48984˚ - 0 nm - Van Nuys
FIM VOR - 2,900 ft / 884 m 34.35669˚ -118.88128˚ 21 nm 21 nm 294° / 294° FILLMORE VORTAC
O KCMA APT - 0 ft / 0 m 34.21374˚ -119.09384˚ 13 nm 34 nm 231° / 231° CAMARILLO

Altitude Profile

Advertisement - Login to hide

KVNY

Details ICAO KVNY (VNY)
Name Van Nuys
Region United States
Timezone America/Los_Angeles (UTC-8.0)
Stats Elevation 802 ft / 244 m (AMSL)
Location 34.210723° -118.489841°
Runways 2
Magnetic Variation 12.075° E

METAR

KVNY 132051Z 17006KT 10SM CLR 28/M19 A2994 RMK AO2 SLP132 T02831189 58032

Decode

TAF

TAF KVNY 131734Z 1318/1418 13003KT P6SM SKC FM132100 15006KT P6SM SKC FM132300 VRB03KT P6SM SKC

Decode

Departure Runways

ID Width Length Bearing (true) Bearing (mag) Surface Threshold Offset Overrun Length
16L 75 ft / 23 m 4,021 ft / 1,226 m 175.53° 163.46° Asphalt 1,430 ft / 436 m 0 ft / 0 m
16R 151 ft / 46 m 8,022 ft / 2,445 m 175.54° 163.47° Asphalt 1,430 ft / 436 m 151 ft / 46 m
34L 151 ft / 46 m 8,022 ft / 2,445 m 355.54° 343.47° Asphalt 0 ft / 0 m 151 ft / 46 m
34R 75 ft / 23 m 4,021 ft / 1,226 m 355.53° 343.46° Asphalt 0 ft / 0 m 0 ft / 0 m

KCMA

Details ICAO KCMA
Name CAMARILLO
Region United States
Timezone America/Los_Angeles (UTC-8.0)
Stats Elevation 77 ft / 23 m (AMSL)
Location 34.213745° -119.093836°
Runways 1
Magnetic Variation 12.192° E

METAR

KCMA 132055Z AUTO 22010KT 9SM CLR 25/02 A2995 RMK AO2 SLP148 6//// T02500022 TSNO

Decode

TAF

TAF KCMA 131734Z 1318/1418 07008KT P6SM SKC FM132100 25008KT 6SM FU SKC FM140300 VRB03KT 6SM FU SKC

Decode

Destination Runways

ID Width Length Bearing (true) Bearing (mag) Surface Threshold Offset Overrun Length
08 151 ft / 46 m 6,019 ft / 1,835 m 90.56° 78.37° Asphalt 0 ft / 0 m 1,076 ft / 328 m
26 151 ft / 46 m 6,019 ft / 1,835 m 270.57° 258.38° Asphalt 0 ft / 0 m 2,861 ft / 872 m

Popular Alternatives